This is the latest recevied weather packets stored in our database for station/object SALIDA. If no packets are shown the sender has not sent any weather packets the latest 10 day(s).
| Time | Temp. | Humidity | Pressure | Rain* | Wind** | Luminosity | Snow |
|---|---|---|---|---|---|---|---|
| 1777691793 | 8.33° C | 52% | 1017.6 hPa | 0 mm | - | - | - |
| 1777690893 | 8.33° C | 49% | 1017 hPa | 0 mm | - | - | - |
| 1777689993 | 8.33° C | 48% | 1016.7 hPa | 0 mm | - | - | - |
| 1777689093 | 8.89° C | 44% | 1016.2 hPa | 0 mm | - | - | - |
| 1777688193 | 9.44° C | 42% | 1015.9 hPa | 0 mm | - | - | - |
| 1777687293 | 9.44° C | 41% | 1015.8 hPa | 0 mm | - | - | - |
| 1777686393 | 10° C | 38% | 1015.4 hPa | 0 mm | - | - | - |
| 1777685493 | 10° C | 37% | 1014.9 hPa | 0 mm | - | - | - |
| 1777684593 | 10.56° C | 37% | 1014.7 hPa | 0 mm | - | - | - |
| 1777683693 | 10.56° C | 37% | 1014.4 hPa | 0 mm | - | - | - |
| 1777682794 | 11.11° C | 35% | 1014.4 hPa | 0 mm | - | - | - |
| 1777681894 | 11.67° C | 33% | 1014.2 hPa | 0 mm | - | - | - |
| 1777680993 | 12.22° C | 32% | 1014.2 hPa | 0 mm | - | - | - |
| 1777680094 | 12.22° C | 32% | 1014.2 hPa | 0 mm | - | - | - |
| 1777679194 | 12.22° C | 34% | 1014.2 hPa | 0 mm | - | - | - |
| 1777678294 | 12.78° C | 25% | 1014.1 hPa | 0 mm | - | - | - |
| 1777677394 | 12.78° C | 28% | 1014.1 hPa | 0 mm | - | - | - |
| 1777676494 | 12.78° C | 27% | 1014.1 hPa | 0 mm | - | - | - |
| 1777675594 | 12.78° C | 28% | 1014.1 hPa | 0 mm | - | - | - |
| 1777674694 | 12.22° C | 34% | 1014.2 hPa | 0 mm | - | - | - |
| 1777673794 | 11.67° C | 36% | 1014.4 hPa | 0 mm | - | - | - |
| 1777672894 | 12.78° C | 34% | 1014.7 hPa | 0 mm | - | - | - |
| 1777671994 | 12.22° C | 36% | 1014.9 hPa | 0 mm | - | - | - |
| 1777671094 | 12.22° C | 33% | 1015.3 hPa | 0 mm | - | - | - |
| 1777670194 | 11.67° C | 36% | 1015.3 hPa | 0 mm | - | - | - |
* Rain latest hour (hover to see other rain measurements)
** Current wind speed in m/s (hover to see current wind gust speed)